Time;durP1;ratioP1;P1;durP2;ratioP2;P2;SDS_P1;SDS_P2;PMS_P1;PMS_P2;Temp;Humidity;BMP_temperature;BMP_pressure;BME280_temperature;BME280_humidity;BME280_pressure;Samples;Min_cycle;Max_cycle;Signal;HPM_P1;HPM_P2
2023/06/14 00:00:57;;;;;;;;;;;;;;;19.36;39.12;101366.84;5058746;28;1083;-78
2023/06/14 00:03:24;;;;;;;;;;;;;;;19.34;38.91;101374.91;5046657;28;1739;-77
2023/06/14 00:05:49;;;;;;;;;;;;;;;19.31;39.26;101369.97;5046323;28;1910;-77
2023/06/14 00:08:15;;;;;;;;;;;;;;;19.29;39.44;101376.41;5056108;28;1130;-77
2023/06/14 00:10:43;;;;;;;;;;;;;;;19.26;39.47;101376.75;5053513;28;1314;-78
2023/06/14 00:13:09;;;;;;;;;;;;;;;19.23;39.61;101382.34;5045723;28;1089;-77
2023/06/14 00:15:34;;;;;;;;;;;;;;;19.21;39.50;101374.63;5045546;28;1463;-77
2023/06/14 00:18:00;;;;;;;;;;;;;;;19.19;39.66;101376.59;5056099;28;1096;-77
2023/06/14 00:20:30;;;;;;;;;;;;;;;19.15;39.70;101374.47;5051930;28;1101;-77
2023/06/14 00:22:55;;;;;;;;;;;;;;;19.15;39.68;101379.72;5045806;28;1190;-77
2023/06/14 00:25:25;;;;;;;;;;;;;;;19.14;39.70;101383.34;5037991;28;1885;-78
2023/06/14 00:27:50;;;;;;;;;;;;;;;19.13;39.69;101379.06;5041062;28;1040;-78
2023/06/14 00:30:15;;;;;;;;;;;;;;;19.12;39.68;101374.81;5048286;28;1427;-77
2023/06/14 00:32:42;;;;;;;;;;;;;;;19.09;39.64;101381.22;5051617;28;1064;-77
2023/06/14 00:35:08;;;;;;;;;;;;;;;19.08;39.75;101375.13;5041778;28;1508;-77
2023/06/14 00:37:33;;;;;;;;;;;;;;;19.04;39.94;101376.47;5049467;28;1423;-77
2023/06/14 00:39:58;;;;;;;;;;;;;;;19.04;39.83;101379.09;5047525;28;1076;-77
2023/06/14 00:42:27;;;;;;;;;;;;;;;18.99;39.98;101376.16;5044952;28;1376;-78
2023/06/14 00:44:52;;;;;;;;;;;;;;;18.98;39.92;101379.78;5043687;28;1897;-77
2023/06/14 00:47:18;;;;;;;;;;;;;;;18.97;39.76;101383.38;5048347;28;1250;-77
2023/06/14 00:49:45;;;;;;;;;;;;;;;18.96;39.92;101381.72;5048769;28;1165;-77
2023/06/14 00:52:12;;;;;;;;;;;;;;;18.92;39.97;101382.22;5046685;28;1282;-77
2023/06/14 00:54:38;;;;;;;;;;;;;;;18.90;39.98;101384.22;5054783;28;1231;-77
2023/06/14 00:57:03;;;;;;;;;;;;;;;18.87;40.09;101382.75;5053685;28;1067;-78
2023/06/14 00:59:28;;;;;;;;;;;;;;;18.82;40.31;101382.41;5039755;28;1195;-77
2023/06/14 01:01:54;;;;;;;;;;;;;;;18.80;40.25;101376.47;5042327;28;1895;-77
2023/06/14 01:04:19;;;;;;;;;;;;;;;18.80;40.38;101376.47;5053363;28;1155;-77
2023/06/14 01:07:03;;;;;;;;;;;;;;;18.78;40.38;101388.97;5040997;28;1910;-78
2023/06/14 01:09:38;;;;;;;;;;;;;;;18.77;40.35;101382.09;5052410;28;986;-77
2023/06/14 01:12:25;;;;;;;;;;;;;;;18.75;40.35;101384.88;5042139;28;1035;-78
2023/06/14 01:14:51;;;;;;;;;;;;;;;18.72;40.29;101379.13;5052906;28;1419;-77
2023/06/14 01:17:17;;;;;;;;;;;;;;;18.69;40.51;101382.06;5046080;28;1110;-77
2023/06/14 01:19:44;;;;;;;;;;;;;;;18.68;40.29;101383.06;5042640;28;876;-77
2023/06/14 01:22:10;;;;;;;;;;;;;;;18.62;40.62;101386.31;5042890;28;1098;-77
2023/06/14 01:24:35;;;;;;;;;;;;;;;18.55;40.68;101386.97;5046436;28;1500;-78
2023/06/14 01:27:02;;;;;;;;;;;;;;;18.51;40.83;101388.28;5046782;28;1894;-78
2023/06/14 01:29:32;;;;;;;;;;;;;;;18.46;41.06;101384.50;5055423;28;1634;-77
2023/06/14 01:31:57;;;;;;;;;;;;;;;18.43;41.34;101390.09;5049512;28;1005;-77
2023/06/14 01:34:22;;;;;;;;;;;;;;;18.39;41.31;101389.59;5052220;28;1478;-78
2023/06/14 01:36:49;;;;;;;;;;;;;;;18.32;41.60;101388.59;5048042;28;1116;-78
2023/06/14 01:39:15;;;;;;;;;;;;;;;18.28;41.66;101385.47;5043663;28;1477;-78
2023/06/14 01:41:41;;;;;;;;;;;;;;;18.28;42.08;101382.00;5054200;28;1409;-78
2023/06/14 01:44:07;;;;;;;;;;;;;;;18.25;41.89;101387.59;5050513;28;1054;-77
2023/06/14 01:46:32;;;;;;;;;;;;;;;18.22;41.85;101385.28;5052093;28;1967;-77
2023/06/14 01:48:58;;;;;;;;;;;;;;;18.18;41.83;101384.81;5053141;28;1440;-77
2023/06/14 01:51:23;;;;;;;;;;;;;;;18.17;42.27;101379.69;5056048;28;1108;-77
2023/06/14 01:53:49;;;;;;;;;;;;;;;18.16;41.92;101383.31;5057145;28;1101;-78
2023/06/14 01:56:14;;;;;;;;;;;;;;;18.14;42.04;101380.84;5052453;28;1140;-77
2023/06/14 01:58:40;;;;;;;;;;;;;;;18.12;42.13;101387.22;5054485;28;1321;-77
2023/06/14 02:01:05;;;;;;;;;;;;;;;18.09;42.01;101387.56;5055355;28;998;-77
2023/06/14 02:03:30;;;;;;;;;;;;;;;18.05;42.46;101390.50;5063069;28;1488;-77
2023/06/14 02:05:56;;;;;;;;;;;;;;;18.02;42.59;101382.13;5052929;28;1955;-78
2023/06/14 02:08:21;;;;;;;;;;;;;;;18.00;42.37;101374.41;5053297;28;1463;-77
2023/06/14 02:10:46;;;;;;;;;;;;;;;17.99;43.10;101372.75;5053189;28;1110;-77
2023/06/14 02:13:12;;;;;;;;;;;;;;;17.95;42.64;101371.47;5057894;28;1071;-77
2023/06/14 02:15:37;;;;;;;;;;;;;;;17.94;43.12;101379.47;5054546;28;1367;-77
2023/06/14 02:18:03;;;;;;;;;;;;;;;17.94;42.76;101380.28;5050731;28;1560;-78
2023/06/14 02:20:28;;;;;;;;;;;;;;;17.89;42.97;101376.50;5050080;28;1235;-77
2023/06/14 02:22:53;;;;;;;;;;;;;;;17.84;43.12;101374.38;5055830;28;1173;-77
2023/06/14 02:25:19;;;;;;;;;;;;;;;17.84;43.86;101376.19;5049349;28;1898;-77
2023/06/14 02:27:44;;;;;;;;;;;;;;;17.79;43.26;101376.66;5060762;28;1731;-77
2023/06/14 02:30:10;;;;;;;;;;;;;;;17.77;43.23;101378.59;5045424;28;1122;-77
2023/06/14 02:32:35;;;;;;;;;;;;;;;17.74;43.07;101384.19;5050091;28;1121;-77
2023/06/14 02:35:00;;;;;;;;;;;;;;;17.73;43.38;101387.78;5040876;28;1662;-78
2023/06/14 02:37:26;;;;;;;;;;;;;;;17.70;44.04;101393.31;5053072;28;1097;-77
2023/06/14 02:39:51;;;;;;;;;;;;;;;17.68;43.43;101384.78;5044114;28;1171;-77
2023/06/14 02:42:16;;;;;;;;;;;;;;;17.66;44.07;101381.47;5044770;28;1198;-78
2023/06/14 02:44:43;;;;;;;;;;;;;;;17.63;44.00;101387.06;5046046;28;1439;-77
2023/06/14 02:47:08;;;;;;;;;;;;;;;17.60;44.03;101382.91;5048352;28;1902;-78
2023/06/14 02:49:33;;;;;;;;;;;;;;;17.55;44.02;101384.38;5048972;28;1737;-77
2023/06/14 02:51:58;;;;;;;;;;;;;;;17.52;44.53;101388.97;5050704;28;1078;-77
2023/06/14 02:54:23;;;;;;;;;;;;;;;17.52;44.59;101391.59;5054378;28;1085;-78
2023/06/14 02:56:49;;;;;;;;;;;;;;;17.48;44.60;101390.25;5056899;28;1124;-77
2023/06/14 02:59:15;;;;;;;;;;;;;;;17.45;44.13;101390.56;5045261;28;1796;-77
2023/06/14 03:01:41;;;;;;;;;;;;;;;17.44;44.31;101398.59;5055655;28;1061;-77
2023/06/14 03:04:09;;;;;;;;;;;;;;;17.43;44.64;101397.78;5043983;28;999;-77
2023/06/14 03:06:34;;;;;;;;;;;;;;;17.40;44.97;101398.09;5053492;28;1898;-77
2023/06/14 03:09:00;;;;;;;;;;;;;;;17.40;44.69;101403.34;5051653;28;1336;-77
2023/06/14 03:11:26;;;;;;;;;;;;;;;17.38;44.75;101405.28;5055006;28;1099;-77
2023/06/14 03:13:52;;;;;;;;;;;;;;;17.34;45.11;101406.56;5052469;28;1051;-77
2023/06/14 03:16:19;;;;;;;;;;;;;;;17.31;45.15;101404.25;5056026;28;1227;-77
2023/06/14 03:18:45;;;;;;;;;;;;;;;17.30;44.83;101405.22;5052749;28;1481;-77
2023/06/14 03:21:10;;;;;;;;;;;;;;;17.28;44.72;101409.81;5062018;28;1078;-78
2023/06/14 03:23:36;;;;;;;;;;;;;;;17.23;44.95;101412.06;5049619;28;1467;-77
2023/06/14 03:26:01;;;;;;;;;;;;;;;17.19;44.85;101413.34;5055070;28;1906;-77
2023/06/14 03:28:26;;;;;;;;;;;;;;;17.16;45.43;101406.63;5040773;28;1290;-77
2023/06/14 03:30:51;;;;;;;;;;;;;;;17.14;45.52;101413.00;5045265;28;1472;-77
2023/06/14 03:33:16;;;;;;;;;;;;;;;17.13;45.38;101408.72;5039619;28;1156;-79
2023/06/14 03:35:43;;;;;;;;;;;;;;;17.11;45.39;101418.56;5048289;28;1158;-78
2023/06/14 03:38:08;;;;;;;;;;;;;;;17.08;45.75;101413.59;5043734;28;1060;-77
2023/06/14 03:40:33;;;;;;;;;;;;;;;17.07;45.75;101411.97;5050972;28;1345;-77
2023/06/14 03:42:58;;;;;;;;;;;;;;;17.05;46.37;101409.50;5047531;28;1063;-78
2023/06/14 03:45:23;;;;;;;;;;;;;;;17.05;45.69;101416.53;5064641;28;1906;-77
2023/06/14 03:47:50;;;;;;;;;;;;;;;17.04;45.98;101422.75;5047090;28;1489;-77
2023/06/14 03:50:15;;;;;;;;;;;;;;;17.02;46.76;101430.75;5053665;28;1088;-77
2023/06/14 03:52:42;;;;;;;;;;;;;;;17.03;45.75;101434.19;5051625;28;1185;-77
2023/06/14 03:55:07;;;;;;;;;;;;;;;16.99;46.61;101433.69;5048421;28;1015;-77
2023/06/14 03:57:33;;;;;;;;;;;;;;;16.98;46.73;101435.50;5044710;28;1557;-77
2023/06/14 03:59:58;;;;;;;;;;;;;;;16.94;47.59;101434.16;5053935;28;1350;-78
2023/06/14 04:02:23;;;;;;;;;;;;;;;16.91;47.67;101437.06;5046330;28;1166;-77
2023/06/14 04:04:48;;;;;;;;;;;;;;;16.89;47.13;101431.16;5044801;28;1934;-77
2023/06/14 04:07:15;;;;;;;;;;;;;;;16.89;47.80;101436.41;5047967;28;1329;-77
2023/06/14 04:09:40;;;;;;;;;;;;;;;16.87;46.93;101435.72;5061013;28;1423;-77
2023/06/14 04:12:06;;;;;;;;;;;;;;;16.89;47.49;101433.78;5054049;28;1280;-77
2023/06/14 04:14:32;;;;;;;;;;;;;;;16.90;46.72;101432.78;5051632;28;1308;-77
2023/06/14 04:16:58;;;;;;;;;;;;;;;16.88;46.97;101440.00;5051826;28;1180;-77
2023/06/14 04:19:23;;;;;;;;;;;;;;;16.86;47.49;101443.72;5051983;28;1922;-77
2023/06/14 04:21:48;;;;;;;;;;;;;;;16.84;47.52;101438.66;5036420;28;1987;-77
2023/06/14 04:24:13;;;;;;;;;;;;;;;16.85;47.63;101450.75;5052882;28;988;-77
2023/06/14 04:26:40;;;;;;;;;;;;;;;16.88;47.85;101450.47;5046908;28;1894;-80
2023/06/14 04:29:06;;;;;;;;;;;;;;;16.89;47.65;101446.88;5049569;28;1478;-80
2023/06/14 04:31:37;;;;;;;;;;;;;;;16.91;47.78;101455.41;5051483;28;1347;-80
2023/06/14 04:34:05;;;;;;;;;;;;;;;16.94;47.55;101455.13;5044672;28;1330;-79
2023/06/14 04:36:34;;;;;;;;;;;;;;;16.96;48.04;101453.16;5059488;28;1448;-80
2023/06/14 04:39:00;;;;;;;;;;;;;;;16.96;48.42;101450.53;5047560;28;1238;-80
2023/06/14 04:41:30;;;;;;;;;;;;;;;16.95;48.12;101451.50;5044966;28;1297;-80
2023/06/14 04:43:57;;;;;;;;;;;;;;;16.97;48.30;101449.59;5045590;28;1078;-80
2023/06/14 04:46:22;;;;;;;;;;;;;;;16.96;47.95;101458.41;5050064;28;1901;-81
2023/06/14 04:48:47;;;;;;;;;;;;;;;16.96;48.28;101458.41;5052568;28;1174;-80
2023/06/14 04:51:13;;;;;;;;;;;;;;;17.00;48.90;101458.94;5046822;28;1564;-80
2023/06/14 04:53:38;;;;;;;;;;;;;;;17.01;47.96;101470.22;5064948;28;1182;-79
2023/06/14 04:56:03;;;;;;;;;;;;;;;16.98;48.71;101468.75;5051782;28;1105;-80
2023/06/14 04:58:29;;;;;;;;;;;;;;;16.97;48.60;101464.47;5048024;28;1061;-79
2023/06/14 05:00:56;;;;;;;;;;;;;;;17.02;48.04;101461.38;5048991;28;1566;-80
2023/06/14 05:03:21;;;;;;;;;;;;;;;17.02;48.38;101466.63;5047158;28;1115;-79
2023/06/14 05:05:47;;;;;;;;;;;;;;;17.06;48.73;101473.22;5049794;28;1925;-80
2023/06/14 05:08:12;;;;;;;;;;;;;;;17.05;49.37;101466.34;5049079;28;1635;-79
2023/06/14 05:10:38;;;;;;;;;;;;;;;17.06;48.93;101470.59;5043507;28;1229;-79
2023/06/14 05:13:03;;;;;;;;;;;;;;;17.08;48.58;101476.50;5056061;28;1054;-79
2023/06/14 05:15:29;;;;;;;;;;;;;;;17.11;48.45;101476.22;5052864;28;1020;-76
2023/06/14 05:17:55;;;;;;;;;;;;;;;17.12;48.52;101483.09;5043181;28;1332;-76
2023/06/14 05:20:22;;;;;;;;;;;;;;;17.12;48.91;101477.84;5047799;28;1184;-77
2023/06/14 05:22:49;;;;;;;;;;;;;;;17.09;49.00;101484.25;5045411;28;1146;-78
2023/06/14 05:25:15;;;;;;;;;;;;;;;17.11;48.62;101486.69;5045595;28;1905;-76
2023/06/14 05:27:41;;;;;;;;;;;;;;;17.14;49.02;101481.13;5048904;28;1493;-76
2023/06/14 05:30:07;;;;;;;;;;;;;;;17.18;48.73;101472.00;5049858;28;1212;-76
2023/06/14 05:32:32;;;;;;;;;;;;;;;17.21;49.27;101484.81;5047103;28;1167;-76
2023/06/14 05:34:57;;;;;;;;;;;;;;;17.24;49.19;101484.50;5044660;28;1824;-77
2023/06/14 05:37:22;;;;;;;;;;;;;;;17.26;49.29;101485.16;5043303;28;1109;-77
2023/06/14 05:39:48;;;;;;;;;;;;;;;17.28;48.77;101490.28;5041759;28;1101;-76
2023/06/14 05:42:13;;;;;;;;;;;;;;;17.33;48.85;101490.63;5038580;28;1134;-77
2023/06/14 05:44:38;;;;;;;;;;;;;;;17.37;48.80;101497.19;5039309;28;1499;-77
2023/06/14 05:47:03;;;;;;;;;;;;;;;17.41;48.76;101494.13;5045085;28;1889;-77
2023/06/14 05:49:28;;;;;;;;;;;;;;;17.47;49.22;101498.75;5048907;28;993;-77
2023/06/14 05:51:54;;;;;;;;;;;;;;;17.55;48.88;101507.66;5036853;28;972;-77
2023/06/14 05:54:19;;;;;;;;;;;;;;;17.64;48.22;101506.75;5047044;28;1300;-77
2023/06/14 05:56:44;;;;;;;;;;;;;;;17.69;48.27;101507.09;5051414;28;1097;-77
2023/06/14 05:59:09;;;;;;;;;;;;;;;17.74;48.13;101510.13;5049712;28;1249;-77
2023/06/14 06:01:36;;;;;;;;;;;;;;;17.78;48.16;101508.84;5050164;28;1328;-77
2023/06/14 06:04:01;;;;;;;;;;;;;;;17.83;47.89;101509.16;5045995;28;1373;-78
2023/06/14 06:06:27;;;;;;;;;;;;;;;17.90;48.21;101520.72;5050796;28;1963;-77
2023/06/14 06:08:52;;;;;;;;;;;;;;;17.95;47.79;101514.97;5041775;28;1297;-76
2023/06/14 06:11:17;;;;;;;;;;;;;;;17.97;47.91;101513.84;5048137;28;1182;-77
2023/06/14 06:13:42;;;;;;;;;;;;;;;18.01;48.20;101517.81;5056281;28;1009;-77
2023/06/14 06:16:08;;;;;;;;;;;;;;;18.10;48.47;101515.22;5049684;28;1074;-77
2023/06/14 06:18:33;;;;;;;;;;;;;;;18.18;48.14;101528.38;5046694;28;1329;-83
2023/06/14 06:20:58;;;;;;;;;;;;;;;18.24;47.82;101518.06;5047744;28;1114;-83
2023/06/14 06:23:24;;;;;;;;;;;;;;;18.28;48.34;101518.56;5041650;28;1559;-82
2023/06/14 06:25:49;;;;;;;;;;;;;;;18.39;47.86;101523.53;5044333;28;1898;-83
2023/06/14 06:28:14;;;;;;;;;;;;;;;18.40;47.98;101522.53;5044219;28;1219;-81
2023/06/14 06:30:39;;;;;;;;;;;;;;;18.45;47.74;101524.69;5056257;28;1234;-84
2023/06/14 06:33:05;;;;;;;;;;;;;;;18.53;47.44;101533.44;5043761;28;1529;-80
2023/06/14 06:35:32;;;;;;;;;;;;;;;18.60;47.35;101530.16;5056294;28;1396;-81
2023/06/14 06:37:58;;;;;;;;;;;;;;;18.63;47.35;101532.47;5042798;28;1281;-81
2023/06/14 06:40:23;;;;;;;;;;;;;;;18.72;47.23;101534.16;5052385;28;1332;-80
2023/06/14 06:42:49;;;;;;;;;;;;;;;18.81;47.31;101530.59;5043899;28;1214;-82
2023/06/14 06:45:15;;;;;;;;;;;;;;;18.93;47.11;101545.06;5048247;28;1890;-82
2023/06/14 06:47:40;;;;;;;;;;;;;;;18.99;47.11;101548.84;5041647;28;984;-80
2023/06/14 06:50:07;;;;;;;;;;;;;;;19.04;46.76;101544.75;5047385;28;1270;-83
2023/06/14 06:52:32;;;;;;;;;;;;;;;19.12;46.31;101551.00;5038468;28;1873;-81
2023/06/14 06:54:57;;;;;;;;;;;;;;;19.19;46.43;101549.34;5045971;28;1419;-81
2023/06/14 06:57:23;;;;;;;;;;;;;;;19.28;46.45;101557.09;5047765;28;1170;-80
2023/06/14 06:59:48;;;;;;;;;;;;;;;19.36;46.14;101550.97;5051533;28;1181;-82
2023/06/14 07:02:13;;;;;;;;;;;;;;;19.43;45.94;101557.22;5054464;28;1082;-80
2023/06/14 07:04:39;;;;;;;;;;;;;;;19.52;45.79;101556.25;5052598;28;1332;-81
2023/06/14 07:07:04;;;;;;;;;;;;;;;19.59;45.68;101573.03;5062461;28;1894;-83
2023/06/14 07:09:29;;;;;;;;;;;;;;;19.70;45.40;101568.44;5048539;28;1075;-82
2023/06/14 07:11:55;;;;;;;;;;;;;;;19.74;44.17;101569.75;5050551;28;1292;-80
2023/06/14 07:14:22;;;;;;;;;;;;;;;19.77;43.82;101569.41;5037157;28;1512;-82
2023/06/14 07:16:49;;;;;;;;;;;;;;;19.87;44.37;101564.78;5051742;28;1202;-80
2023/06/14 07:19:14;;;;;;;;;;;;;;;19.95;44.22;101567.38;5037336;28;1770;-80
2023/06/14 07:21:40;;;;;;;;;;;;;;;20.07;43.95;101566.06;5049520;28;1297;-79
2023/06/14 07:24:06;;;;;;;;;;;;;;;20.17;43.86;101571.91;5053081;28;1029;-82
2023/06/14 07:26:31;;;;;;;;;;;;;;;20.30;43.54;101573.19;5055405;28;1967;-81
2023/06/14 07:28:56;;;;;;;;;;;;;;;20.41;43.42;101568.41;5046676;28;1428;-81
2023/06/14 07:31:22;;;;;;;;;;;;;;;20.49;43.38;101575.47;5048647;28;1152;-81
2023/06/14 07:33:47;;;;;;;;;;;;;;;20.60;42.63;101583.00;5049595;28;1155;-79
2023/06/14 07:36:12;;;;;;;;;;;;;;;20.63;43.05;101587.91;5042253;28;1208;-79
2023/06/14 07:38:37;;;;;;;;;;;;;;;20.71;42.62;101588.88;5043261;28;1729;-79
2023/06/14 07:41:03;;;;;;;;;;;;;;;20.81;42.65;101589.44;5048369;28;1215;-81
2023/06/14 07:43:28;;;;;;;;;;;;;;;20.90;42.74;101578.69;5044546;28;1195;-79
2023/06/14 07:45:53;;;;;;;;;;;;;;;21.00;42.62;101583.75;5037289;28;1914;-81
2023/06/14 07:48:19;;;;;;;;;;;;;;;21.07;42.73;101589.97;5052924;28;1218;-81
2023/06/14 07:50:44;;;;;;;;;;;;;;;21.17;42.55;101590.56;5050836;28;1111;-80
2023/06/14 07:53:10;;;;;;;;;;;;;;;21.24;42.17;101595.13;5047516;28;1076;-81
2023/06/14 07:55:36;;;;;;;;;;;;;;;21.30;41.70;101594.44;5035129;28;1451;-80
2023/06/14 07:58:02;;;;;;;;;;;;;;;21.35;42.22;101598.19;5043042;28;1400;-81
2023/06/14 08:00:28;;;;;;;;;;;;;;;21.43;41.77;101605.22;5043405;28;1079;-80
2023/06/14 08:02:58;;;;;;;;;;;;;;;21.56;41.09;101602.78;5048712;28;1101;-80
2023/06/14 08:05:23;;;;;;;;;;;;;;;21.73;40.25;101611.38;5045788;28;1960;-79
2023/06/14 08:07:48;;;;;;;;;;;;;;;21.67;39.71;101602.38;5051971;28;1404;-81
2023/06/14 08:10:14;;;;;;;;;;;;;;;21.63;39.46;101610.84;5048681;28;1085;-80
2023/06/14 08:12:39;;;;;;;;;;;;;;;21.69;39.42;101605.66;5049516;28;1172;-81
2023/06/14 08:15:04;;;;;;;;;;;;;;;21.72;39.60;101605.28;5041537;28;1305;-83
2023/06/14 08:17:30;;;;;;;;;;;;;;;21.85;40.13;101603.84;5047976;28;1230;-80
2023/06/14 08:19:57;;;;;;;;;;;;;;;21.94;39.13;101597.50;5045235;28;1214;-80
2023/06/14 08:22:24;;;;;;;;;;;;;;;22.05;38.08;101604.16;5052093;28;1134;-81
2023/06/14 08:24:49;;;;;;;;;;;;;;;22.06;37.52;101603.97;5048906;28;868;-80
2023/06/14 08:27:15;;;;;;;;;;;;;;;22.06;38.31;101597.88;5038985;28;1949;-80
2023/06/14 08:29:41;;;;;;;;;;;;;;;22.11;37.46;101598.16;5059844;28;1579;-81
2023/06/14 08:32:06;;;;;;;;;;;;;;;22.21;38.04;101610.09;5049529;28;1105;-80
2023/06/14 08:34:32;;;;;;;;;;;;;;;22.26;36.82;101607.75;5037280;28;1215;-81
2023/06/14 08:36:57;;;;;;;;;;;;;;;22.30;37.66;101602.06;5050068;28;1363;-81
2023/06/14 08:39:22;;;;;;;;;;;;;;;22.40;35.70;101607.91;5054705;28;1249;-80
2023/06/14 08:41:48;;;;;;;;;;;;;;;22.49;35.94;101612.91;5055595;28;1479;-80
2023/06/14 08:44:15;;;;;;;;;;;;;;;22.50;34.68;101614.56;5047181;28;1277;-81
2023/06/14 08:46:41;;;;;;;;;;;;;;;22.52;34.84;101607.25;5040401;28;1898;-81
2023/06/14 08:49:08;;;;;;;;;;;;;;;22.60;35.69;101606.34;5048023;28;1177;-80
2023/06/14 08:51:36;;;;;;;;;;;;;;;22.73;35.50;101603.84;5045438;28;1104;-81
2023/06/14 08:54:04;;;;;;;;;;;;;;;22.85;35.20;101606.00;5039388;28;1328;-79
2023/06/14 08:56:30;;;;;;;;;;;;;;;22.89;35.24;101604.66;5032908;28;1278;-79
2023/06/14 08:58:56;;;;;;;;;;;;;;;22.97;34.98;101609.81;5042792;28;1108;-81
2023/06/14 09:01:23;;;;;;;;;;;;;;;22.95;35.07;101614.50;5040138;28;1302;-80
2023/06/14 09:03:49;;;;;;;;;;;;;;;23.02;34.85;101605.63;5038769;28;1286;-81
2023/06/14 09:06:15;;;;;;;;;;;;;;;23.02;35.06;101602.16;5046432;28;1898;-82
2023/06/14 09:08:44;;;;;;;;;;;;;;;23.09;34.71;101610.97;5046263;28;990;-81
2023/06/14 09:11:14;;;;;;;;;;;;;;;23.31;33.96;101612.59;5043443;28;1107;-81
2023/06/14 09:13:39;;;;;;;;;;;;;;;23.17;34.55;101616.16;5041729;28;1439;-80
2023/06/14 09:16:05;;;;;;;;;;;;;;;23.24;33.45;101613.56;5040654;28;1400;-81
2023/06/14 09:18:38;;;;;;;;;;;;;;;23.31;33.73;101615.25;5044376;28;1130;-80
2023/06/14 09:21:03;;;;;;;;;;;;;;;23.36;33.65;101624.47;5043123;28;1324;-80
2023/06/14 09:23:28;;;;;;;;;;;;;;;23.41;33.72;101622.06;5040907;28;1435;-81
2023/06/14 09:25:53;;;;;;;;;;;;;;;23.45;32.83;101623.31;5047128;28;1890;-81
2023/06/14 09:28:22;;;;;;;;;;;;;;;23.38;32.75;101625.91;5041153;28;1273;-81
2023/06/14 09:30:47;;;;;;;;;;;;;;;23.36;31.54;101624.47;5047045;28;1380;-81
2023/06/14 09:33:16;;;;;;;;;;;;;;;23.46;32.57;101624.97;5054203;28;1101;-83
2023/06/14 09:35:41;;;;;;;;;;;;;;;23.41;32.38;101617.59;5045221;28;1006;-82
2023/06/14 09:38:07;;;;;;;;;;;;;;;23.43;32.35;101620.84;5045411;28;1133;-83
2023/06/14 09:40:36;;;;;;;;;;;;;;;23.43;32.44;101620.03;5043284;28;1328;-80
2023/06/14 09:43:04;;;;;;;;;;;;;;;23.59;32.28;101619.78;5045284;28;1178;-82
2023/06/14 09:45:31;;;;;;;;;;;;;;;23.53;32.32;101623.19;5056993;28;1898;-83
2023/06/14 09:47:57;;;;;;;;;;;;;;;23.60;33.20;101616.09;5051940;28;1270;-78
2023/06/14 09:50:22;;;;;;;;;;;;;;;23.70;31.67;101621.94;5059432;28;1349;-82
2023/06/14 09:52:51;;;;;;;;;;;;;;;23.70;32.03;101611.34;5049221;28;1098;-81
2023/06/14 09:55:18;;;;;;;;;;;;;;;23.74;32.01;101617.91;5049731;28;1113;-81
2023/06/14 09:57:45;;;;;;;;;;;;;;;23.95;30.50;101614.34;5046666;28;1054;-80
2023/06/14 10:00:12;;;;;;;;;;;;;;;23.88;31.46;101613.50;5046481;28;1536;-81
2023/06/14 10:02:39;;;;;;;;;;;;;;;23.90;31.75;101611.47;5042849;28;1732;-82
2023/06/14 10:05:11;;;;;;;;;;;;;;;23.94;32.30;101614.56;5038259;28;1914;-82
2023/06/14 10:07:41;;;;;;;;;;;;;;;24.08;32.67;101619.72;5045770;28;1377;-80
2023/06/14 10:10:07;;;;;;;;;;;;;;;24.22;31.80;101610.03;5046610;28;1984;-80
2023/06/14 10:12:32;;;;;;;;;;;;;;;24.29;32.22;101616.19;5045149;28;1481;-79
2023/06/14 10:14:58;;;;;;;;;;;;;;;24.41;32.12;101619.13;5056295;28;1352;-81
2023/06/14 10:17:26;;;;;;;;;;;;;;;24.56;31.79;101606.53;5068412;28;1365;-81
2023/06/14 10:19:55;;;;;;;;;;;;;;;24.60;30.97;101628.16;5053832;28;1285;-80
2023/06/14 10:22:35;;;;;;;;;;;;;;;24.52;30.86;101620.41;5054244;28;1027;-81
2023/06/14 10:25:01;;;;;;;;;;;;;;;24.46;30.23;101626.50;5045965;28;1168;-80
2023/06/14 10:27:27;;;;;;;;;;;;;;;24.43;30.00;101621.56;5052373;28;1967;-78
2023/06/14 10:29:52;;;;;;;;;;;;;;;24.37;30.79;101612.56;5048703;28;1167;-80
2023/06/14 10:32:18;;;;;;;;;;;;;;;24.44;30.60;101613.44;5057758;28;1257;-79
2023/06/14 10:34:44;;;;;;;;;;;;;;;24.46;31.47;101615.88;5048658;28;1210;-81
2023/06/14 10:37:13;;;;;;;;;;;;;;;24.60;32.12;101618.41;5049306;28;1477;-80
2023/06/14 10:39:40;;;;;;;;;;;;;;;24.72;32.48;101605.38;5048505;28;1226;-80
2023/06/14 10:42:06;;;;;;;;;;;;;;;24.84;31.62;101603.78;5063344;28;1199;-79
2023/06/14 10:44:33;;;;;;;;;;;;;;;24.87;31.90;101608.66;5055929;28;1262;-78
2023/06/14 10:46:59;;;;;;;;;;;;;;;24.90;32.15;101613.59;5058746;28;1885;-79
2023/06/14 10:49:40;;;;;;;;;;;;;;;24.99;31.91;101621.34;5048767;28;1384;-79
2023/06/14 10:52:09;;;;;;;;;;;;;;;25.07;31.55;101618.56;5040339;28;1304;-80
2023/06/14 10:54:34;;;;;;;;;;;;;;;25.20;31.34;101607.94;5055805;28;1099;-80
2023/06/14 10:56:59;;;;;;;;;;;;;;;25.30;31.34;101596.94;5039538;28;1293;-80
2023/06/14 10:59:24;;;;;;;;;;;;;;;25.34;31.45;101608.75;5045061;28;1140;-79
2023/06/14 11:01:58;;;;;;;;;;;;;;;25.46;31.57;101614.28;5044074;28;1084;-80
2023/06/14 11:04:30;;;;;;;;;;;;;;;25.54;31.63;101603.47;5046535;28;1538;-80
2023/06/14 11:07:08;;;;;;;;;;;;;;;25.56;30.76;101612.84;5040569;28;1902;-79
2023/06/14 11:09:54;;;;;;;;;;;;;;;25.31;30.23;101607.34;5040788;28;1158;-79
2023/06/14 11:12:21;;;;;;;;;;;;;;;25.20;30.52;101607.94;5043065;28;1257;-81
2023/06/14 11:14:47;;;;;;;;;;;;;;;25.17;30.71;101613.66;5041765;28;1257;-80
2023/06/14 11:17:12;;;;;;;;;;;;;;;25.16;30.69;101622.63;5054001;28;998;-81
2023/06/14 11:19:38;;;;;;;;;;;;;;;25.14;31.40;101614.06;5048210;28;1132;-81
2023/06/14 11:22:03;;;;;;;;;;;;;;;25.21;30.40;101617.53;5049293;28;1297;-80
2023/06/14 11:24:28;;;;;;;;;;;;;;;25.18;30.71;101619.81;5043338;28;1283;-81
2023/06/14 11:26:56;;;;;;;;;;;;;;;25.15;30.64;101610.38;5047169;28;1898;-80
2023/06/14 11:29:21;;;;;;;;;;;;;;;25.24;30.85;101609.19;5050112;28;1169;-80
2023/06/14 11:31:47;;;;;;;;;;;;;;;25.26;31.30;101607.13;5047968;28;1227;-81
2023/06/14 11:34:12;;;;;;;;;;;;;;;25.32;31.02;101606.31;5047158;28;1095;-80
2023/06/14 11:36:38;;;;;;;;;;;;;;;25.40;31.26;101606.13;5065579;28;1207;-84
2023/06/14 11:39:05;;;;;;;;;;;;;;;25.39;31.07;101596.50;5040513;28;1316;-81
2023/06/14 11:41:38;;;;;;;;;;;;;;;25.41;30.80;101605.13;5058848;28;1345;-80
2023/06/14 11:44:04;;;;;;;;;;;;;;;25.48;30.49;101604.28;5048355;28;1096;-80
2023/06/14 11:46:29;;;;;;;;;;;;;;;25.38;30.36;101594.88;5041636;28;1886;-80
2023/06/14 11:48:55;;;;;;;;;;;;;;;25.33;29.29;101602.63;5050467;28;1296;-80
2023/06/14 11:51:20;;;;;;;;;;;;;;;25.31;30.64;101594.06;5044618;28;1706;-80
2023/06/14 11:53:46;;;;;;;;;;;;;;;25.28;30.66;101604.28;5049109;28;991;-80
2023/06/14 11:56:11;;;;;;;;;;;;;;;25.30;30.95;101597.75;5040381;28;1599;-79
2023/06/14 11:58:36;;;;;;;;;;;;;;;25.31;30.31;101604.69;5034006;28;2102;-80
2023/06/14 12:01:03;;;;;;;;;;;;;;;25.34;30.49;101598.97;5041003;28;1352;-81
2023/06/14 12:03:28;;;;;;;;;;;;;;;25.31;30.43;101601.22;5044090;28;1126;-81
2023/06/14 12:06:09;;;;;;;;;;;;;;;25.33;30.08;101605.28;5047512;28;1887;-80
2023/06/14 12:08:41;;;;;;;;;;;;;;;25.32;30.19;101597.53;5042333;28;1230;-81
2023/06/14 12:11:16;;;;;;;;;;;;;;;25.36;30.31;101606.75;5044356;28;1473;-80
2023/06/14 12:13:42;;;;;;;;;;;;;;;25.36;30.25;101602.25;5038352;28;1386;-80
2023/06/14 12:16:10;;;;;;;;;;;;;;;25.40;30.26;101598.16;5044555;28;1336;-82
2023/06/14 12:18:36;;;;;;;;;;;;;;;25.41;29.34;101610.41;5042755;28;1607;-80
2023/06/14 12:21:08;;;;;;;;;;;;;;;25.39;28.77;101622.25;5044766;28;1466;-83
2023/06/14 12:23:42;;;;;;;;;;;;;;;25.26;29.16;101607.13;5041143;28;1133;-80
2023/06/14 12:26:07;;;;;;;;;;;;;;;25.26;29.14;101612.44;5047877;28;1939;-82
2023/06/14 12:28:32;;;;;;;;;;;;;;;25.28;29.48;101615.72;5041690;28;1286;-81
2023/06/14 12:30:58;;;;;;;;;;;;;;;25.32;29.59;101601.00;5046366;28;1388;-80
2023/06/14 12:33:24;;;;;;;;;;;;;;;25.32;28.71;101601.00;5046272;28;1395;-86
2023/06/14 12:35:49;;;;;;;;;;;;;;;25.29;30.29;101605.91;5045008;28;1787;-80
2023/06/14 12:38:16;;;;;;;;;;;;;;;25.47;29.80;101608.78;5045602;28;1390;-81
2023/06/14 12:40:42;;;;;;;;;;;;;;;25.48;29.04;101606.94;5044692;28;1354;-80
2023/06/14 12:43:07;;;;;;;;;;;;;;;25.45;29.47;101607.34;5057087;28;1422;-81